Time;durP1;ratioP1;P1;durP2;ratioP2;P2;SDS_P1;SDS_P2;PMS_P1;PMS_P2;Temp;Humidity;BMP_temperature;BMP_pressure;BME280_temperature;BME280_humidity;BME280_pressure;Samples;Min_cycle;Max_cycle;Signal;HPM_P1;HPM_P2
2022/10/06 00:00:22;;;;;;;9.00;6.50;;;;;;;9.95;63.45;96134.84;5027720;28;20202;-69
2022/10/06 00:02:47;;;;;;;9.00;6.32;;;;;;;9.91;63.70;96136.03;5029735;28;20185;-68
2022/10/06 00:05:13;;;;;;;9.32;6.88;;;;;;;9.91;63.77;96143.91;5031383;28;20193;-69
2022/10/06 00:07:38;;;;;;;10.23;6.55;;;;;;;10.16;63.11;96148.94;5013830;28;20248;-69
2022/10/06 00:10:05;;;;;;;7.60;6.28;;;;;;;9.92;63.29;96138.56;5031611;28;20186;-69
2022/10/06 00:12:42;;;;;;;9.60;6.97;;;;;;;9.95;63.62;96134.84;5009114;28;20202;-69
2022/10/06 00:15:10;;;;;;;11.32;6.80;;;;;;;10.01;63.43;96144.88;5019439;28;20208;-69
2022/10/06 00:17:35;;;;;;;8.20;6.88;;;;;;;10.04;63.57;96144.63;5042762;28;20206;-69
2022/10/06 00:20:01;;;;;;;8.90;6.80;;;;;;;9.98;63.76;96139.88;5032069;28;20213;-68
2022/10/06 00:22:53;;;;;;;10.55;6.47;;;;;;;9.98;63.63;96139.03;5033398;28;20201;-68
2022/10/06 00:25:22;;;;;;;9.25;6.93;;;;;;;9.88;64.19;96133.66;5025647;28;20205;-70
2022/10/06 00:27:50;;;;;;;7.70;5.83;;;;;;;9.70;64.50;96130.66;5030327;28;20216;-70
2022/10/06 00:30:21;;;;;;;8.43;6.30;;;;;;;9.76;64.30;96135.47;5030374;28;20290;-69
2022/10/06 00:32:53;;;;;;;8.23;5.87;;;;;;;9.74;64.24;96136.53;5028005;28;20205;-69
2022/10/06 00:35:19;;;;;;;7.00;6.13;;;;;;;9.81;64.30;96135.06;5034850;28;20193;-69
2022/10/06 00:37:44;;;;;;;10.43;6.47;;;;;;;9.79;64.42;96124.72;5032076;28;20185;-69
2022/10/06 00:40:10;;;;;;;7.37;5.77;;;;;;;9.87;64.07;96118.84;5032598;28;20216;-69
2022/10/06 00:43:03;;;;;;;11.77;6.20;;;;;;;9.79;64.41;96123.88;5037096;28;20208;-68
2022/10/06 00:45:49;;;;;;;8.80;5.70;;;;;;;9.75;64.48;96132.94;5028928;28;20232;-68
2022/10/06 00:48:26;;;;;;;10.38;5.75;;;;;;;9.69;64.18;96127.22;5023331;28;20186;-68
2022/10/06 00:50:55;;;;;;;11.03;6.30;;;;;;;9.49;65.05;96122.69;5025254;28;20214;-68
2022/10/06 00:53:22;;;;;;;12.15;6.57;;;;;;;9.40;65.17;96121.56;5034053;28;20347;-67
2022/10/06 00:55:48;;;;;;;12.10;6.80;;;;;;;9.43;65.20;96117.88;5011018;28;20332;-68
2022/10/06 00:58:15;;;;;;;11.03;6.40;;;;;;;9.44;64.88;96099.41;5026707;28;20188;-67
2022/10/06 01:00:43;;;;;;;8.63;6.83;;;;;;;9.44;65.05;96104.66;5014528;28;20230;-67
2022/10/06 01:03:38;;;;;;;10.82;6.70;;;;;;;9.43;64.62;96096.88;5011949;28;20205;-67
2022/10/06 01:06:04;;;;;;;13.70;7.70;;;;;;;9.41;64.97;96101.41;5019380;28;20186;-67
2022/10/06 01:08:31;;;;;;;14.57;8.37;;;;;;;9.25;65.05;96094.72;5025362;28;20205;-67
2022/10/06 01:10:56;;;;;;;17.37;7.53;;;;;;;9.21;65.59;96101.16;5012522;28;20236;-68
2022/10/06 01:13:23;;;;;;;12.30;6.87;;;;;;;9.28;65.14;96096.28;5029936;28;20218;-68
2022/10/06 01:15:55;;;;;;;13.30;7.20;;;;;;;9.36;65.05;96088.66;5013036;28;20244;-69
2022/10/06 01:18:25;;;;;;;12.73;6.22;;;;;;;9.37;65.21;96084.22;5013242;28;20588;-68
2022/10/06 01:21:01;;;;;;;8.10;5.30;;;;;;;9.24;65.44;96077.28;5010915;28;20198;-67
2022/10/06 01:23:26;;;;;;;6.93;5.20;;;;;;;9.20;65.63;96075.03;5022596;28;20197;-67
2022/10/06 01:25:52;;;;;;;10.43;5.60;;;;;;;9.39;65.36;96077.91;5031787;28;20213;-67
2022/10/06 01:28:18;;;;;;;7.40;5.00;;;;;;;9.36;65.31;96077.31;5033894;28;20255;-67
2022/10/06 01:30:51;;;;;;;9.07;5.67;;;;;;;9.42;64.98;96077.66;5031692;28;20270;-68
2022/10/06 01:33:18;;;;;;;11.95;6.40;;;;;;;9.23;65.53;96080.03;5030586;28;20208;-67
2022/10/06 01:35:48;;;;;;;8.43;7.03;;;;;;;9.06;66.15;96076.06;5029690;28;20217;-67
2022/10/06 01:38:13;;;;;;;11.52;7.38;;;;;;;9.01;66.28;96073.81;5032028;28;20213;-67
2022/10/06 01:40:39;;;;;;;9.97;6.43;;;;;;;9.03;66.13;96071.06;5032184;28;20217;-67
2022/10/06 01:43:04;;;;;;;8.13;5.73;;;;;;;9.09;66.23;96073.22;5033450;28;20190;-67
2022/10/06 01:45:30;;;;;;;8.30;5.93;;;;;;;8.77;66.94;96073.88;5033544;28;20197;-68
2022/10/06 01:47:55;;;;;;;10.63;6.60;;;;;;;8.04;70.21;96077.44;5036898;28;20197;-68
2022/10/06 01:50:21;;;;;;;8.63;6.17;;;;;;;8.27;70.17;96069.69;5033988;28;20178;-68
2022/10/06 01:52:46;;;;;;;9.83;6.20;;;;;;;8.56;68.33;96070.22;5033432;28;20296;-68
2022/10/06 01:55:13;;;;;;;9.50;5.78;;;;;;;8.75;67.45;96067.91;5029532;28;20287;-68
2022/10/06 01:57:40;;;;;;;8.10;5.30;;;;;;;8.72;67.55;96077.78;5027930;28;20206;-68
2022/10/06 02:00:07;;;;;;;7.10;5.90;;;;;;;8.88;66.81;96080.09;5038019;28;20182;-69
2022/10/06 02:02:32;;;;;;;11.30;5.20;;;;;;;8.76;66.81;96076.59;5036258;28;20412;-68
2022/10/06 02:04:58;;;;;;;8.17;5.43;;;;;;;8.65;67.37;96082.63;5035041;28;20205;-68
2022/10/06 02:07:23;;;;;;;7.97;5.53;;;;;;;8.93;66.23;96085.84;5034911;28;20324;-68
2022/10/06 02:09:48;;;;;;;9.47;5.20;;;;;;;9.26;65.34;96085.88;5035857;28;20178;-68
2022/10/06 02:12:14;;;;;;;9.87;5.73;;;;;;;9.07;65.33;96075.13;5033855;28;20340;-68
2022/10/06 02:14:40;;;;;;;6.63;5.27;;;;;;;8.90;66.00;96084.28;5031181;28;20221;-67
2022/10/06 02:17:06;;;;;;;10.93;5.60;;;;;;;8.69;67.00;96078.03;5031250;28;20190;-67
2022/10/06 02:19:31;;;;;;;8.03;5.30;;;;;;;8.74;66.89;96074.09;5032456;28;20197;-68
2022/10/06 02:21:57;;;;;;;8.47;5.60;;;;;;;8.82;66.75;96076.97;5033309;28;20190;-67
2022/10/06 02:24:23;;;;;;;6.30;4.80;;;;;;;8.76;66.62;96082.66;5029984;28;20185;-68
2022/10/06 02:26:48;;;;;;;8.52;5.20;;;;;;;8.95;66.15;96084.75;5032153;28;20186;-68
2022/10/06 02:29:14;;;;;;;10.17;5.80;;;;;;;8.86;66.06;96076.75;5030801;28;20214;-69
2022/10/06 02:31:39;;;;;;;8.40;4.97;;;;;;;8.62;67.05;96069.75;5028413;28;20182;-66
2022/10/06 02:34:05;;;;;;;6.95;4.60;;;;;;;8.66;66.85;96072.97;5035064;28;20193;-67
2022/10/06 02:36:30;;;;;;;10.80;5.23;;;;;;;8.56;66.97;96078.09;5030972;28;20232;-69
2022/10/06 02:38:56;;;;;;;5.93;4.40;;;;;;;8.57;66.94;96066.63;5031773;28;20186;-68
2022/10/06 02:41:22;;;;;;;4.27;3.83;;;;;;;8.61;66.44;96083.81;5029904;28;20206;-68
2022/10/06 02:43:47;;;;;;;4.82;4.15;;;;;;;8.59;66.67;96085.72;5031590;28;20224;-68
2022/10/06 02:46:14;;;;;;;4.38;3.85;;;;;;;8.59;66.36;96083.09;5033647;28;20201;-67
2022/10/06 02:48:42;;;;;;;7.67;3.97;;;;;;;8.51;66.27;96080.22;5031582;28;20186;-68
2022/10/06 02:51:14;;;;;;;5.00;4.33;;;;;;;8.78;65.26;96086.03;5027670;28;20190;-68
2022/10/06 02:53:42;;;;;;;8.93;4.00;;;;;;;8.83;64.90;96076.03;5032372;28;20197;-68
2022/10/06 02:56:10;;;;;;;5.53;4.40;;;;;;;8.51;66.44;96088.06;5032975;28;20280;-69
2022/10/06 02:58:37;;;;;;;6.63;4.43;;;;;;;8.47;66.77;96076.13;5032239;28;20187;-68
2022/10/06 03:01:07;;;;;;;10.27;5.27;;;;;;;8.85;65.34;96078.53;5031425;28;20190;-67
2022/10/06 03:03:34;;;;;;;7.73;5.80;;;;;;;8.71;66.01;96086.59;5030419;28;20190;-68
2022/10/06 03:06:04;;;;;;;6.60;4.90;;;;;;;8.56;66.93;96096.44;5030033;28;20178;-67
2022/10/06 03:08:30;;;;;;;7.70;4.97;;;;;;;8.54;66.44;96085.22;5030691;28;20189;-67
2022/10/06 03:11:03;;;;;;;6.23;4.60;;;;;;;8.70;66.27;96091.00;5035831;28;20194;-67
2022/10/06 03:13:29;;;;;;;13.10;5.30;;;;;;;8.37;67.01;96081.19;5032444;28;20240;-66
2022/10/06 03:15:56;;;;;;;7.20;5.03;;;;;;;8.51;66.81;96088.06;5032459;28;20194;-67
2022/10/06 03:18:22;;;;;;;15.97;5.60;;;;;;;8.44;66.54;96076.34;5033256;28;20190;-67
2022/10/06 03:20:48;;;;;;;19.00;6.00;;;;;;;8.42;66.69;96073.88;5040954;28;20181;-67
2022/10/06 03:23:13;;;;;;;14.68;6.22;;;;;;;8.36;66.67;96077.72;5034871;28;20189;-67
2022/10/06 03:25:38;;;;;;;22.50;6.33;;;;;;;8.38;66.82;96088.94;5034453;28;20186;-68
2022/10/06 03:28:04;;;;;;;14.63;6.05;;;;;;;8.37;66.73;96076.78;5036627;28;20244;-69
2022/10/06 03:30:29;;;;;;;14.30;5.50;;;;;;;8.52;66.35;96076.63;5031064;28;20182;-68
2022/10/06 03:32:55;;;;;;;14.68;5.75;;;;;;;8.29;66.38;96073.06;5030385;28;20205;-67
2022/10/06 03:35:20;;;;;;;14.37;5.30;;;;;;;8.42;66.37;96068.63;5031806;28;20276;-68
2022/10/06 03:37:45;;;;;;;15.20;6.47;;;;;;;8.34;66.72;96066.53;5029620;28;20196;-68
2022/10/06 03:40:11;;;;;;;11.70;6.30;;;;;;;8.39;66.70;96069.69;5033668;28;20213;-68
2022/10/06 03:42:36;;;;;;;8.27;5.47;;;;;;;8.37;67.23;96076.78;5032021;28;20185;-68
2022/10/06 03:45:02;;;;;;;12.00;6.33;;;;;;;8.45;66.91;96072.81;5031417;28;20186;-67
2022/10/06 03:47:31;;;;;;;11.90;6.10;;;;;;;8.27;67.31;96069.69;5034431;28;20213;-68
2022/10/06 03:49:56;;;;;;;9.43;6.07;;;;;;;8.17;67.60;96065.13;5023145;28;20178;-68
2022/10/06 03:52:21;;;;;;;8.15;5.50;;;;;;;8.36;66.88;96064.59;5029714;28;20186;-67
2022/10/06 03:54:47;;;;;;;5.90;5.10;;;;;;;8.14;67.23;96054.88;5030449;28;20253;-67
2022/10/06 03:57:13;;;;;;;7.00;5.43;;;;;;;7.70;69.83;96068.53;5034255;28;20190;-68
2022/10/06 03:59:38;;;;;;;7.27;5.50;;;;;;;8.02;68.43;96060.16;5040687;28;20243;-67
2022/10/06 04:02:04;;;;;;;7.47;5.77;;;;;;;7.92;68.40;96068.69;5034679;28;20228;-67
2022/10/06 04:04:30;;;;;;;10.03;6.77;;;;;;;7.55;70.81;96067.81;5035747;28;20245;-67
2022/10/06 04:06:55;;;;;;;8.00;6.27;;;;;;;7.97;68.67;96062.28;5030435;28;20228;-69
2022/10/06 04:09:21;;;;;;;7.10;6.30;;;;;;;7.88;69.44;96069.81;5023448;28;20275;-68
2022/10/06 04:11:47;;;;;;;9.93;6.43;;;;;;;8.06;68.43;96070.31;5032162;28;20187;-69
2022/10/06 04:14:15;;;;;;;8.93;6.47;;;;;;;8.21;67.86;96071.00;5034139;28;20311;-68
2022/10/06 04:16:45;;;;;;;10.33;7.10;;;;;;;8.14;67.23;96073.19;5035367;28;20194;-68
2022/10/06 04:19:12;;;;;;;8.23;6.50;;;;;;;8.09;67.42;96064.00;5025689;28;20209;-67
2022/10/06 04:21:40;;;;;;;8.20;6.57;;;;;;;8.34;66.55;96071.78;5030246;28;20185;-67
2022/10/06 04:24:06;;;;;;;10.23;6.90;;;;;;;8.30;65.97;96067.69;5028612;28;20183;-67
2022/10/06 04:26:38;;;;;;;8.30;6.40;;;;;;;8.23;66.53;96070.84;5032725;28;20240;-68
2022/10/06 04:29:04;;;;;;;7.77;7.00;;;;;;;8.19;66.76;96078.13;5031024;28;20277;-70
2022/10/06 04:31:31;;;;;;;9.23;6.27;;;;;;;8.15;66.62;96079.28;5030651;28;20264;-68
2022/10/06 04:33:58;;;;;;;9.20;6.57;;;;;;;7.81;68.11;96080.88;5031133;28;20205;-69
2022/10/06 04:36:26;;;;;;;8.20;7.03;;;;;;;7.81;68.50;96089.56;5031596;28;20196;-69
2022/10/06 04:38:57;;;;;;;10.17;7.10;;;;;;;8.05;67.99;96089.59;5030436;28;20182;-68
2022/10/06 04:41:30;;;;;;;9.83;7.03;;;;;;;8.13;67.63;96076.78;5036118;28;20209;-67
2022/10/06 04:43:56;;;;;;;12.97;6.80;;;;;;;8.22;67.48;96088.38;5032105;28;20182;-67
2022/10/06 04:46:23;;;;;;;11.93;7.00;;;;;;;7.87;68.77;96090.91;5023499;28;20204;-67
2022/10/06 04:48:53;;;;;;;8.33;6.43;;;;;;;7.80;69.27;96090.47;5030738;28;20194;-66
2022/10/06 04:51:20;;;;;;;8.23;7.13;;;;;;;7.91;68.92;96092.34;5030570;28;20201;-68
2022/10/06 04:53:46;;;;;;;11.73;7.00;;;;;;;7.97;68.93;96093.72;5027410;28;20258;-68
2022/10/06 04:56:28;;;;;;;9.93;7.10;;;;;;;7.93;69.07;96093.91;5027601;28;20238;-67
2022/10/06 04:58:55;;;;;;;8.05;6.38;;;;;;;8.10;68.60;96097.97;5030758;28;20228;-67
2022/10/06 05:01:23;;;;;;;8.77;6.18;;;;;;;8.10;68.71;96099.72;5036370;28;20186;-67
2022/10/06 05:03:51;;;;;;;10.53;6.83;;;;;;;8.06;69.21;96095.66;5029669;28;20197;-67
2022/10/06 05:06:20;;;;;;;9.30;6.60;;;;;;;8.18;68.83;96106.09;5013882;28;20183;-67
2022/10/06 05:09:13;;;;;;;11.70;6.67;;;;;;;8.17;69.16;96107.03;5034913;28;20197;-68
2022/10/06 05:11:38;;;;;;;9.70;6.57;;;;;;;8.26;68.61;96107.31;5032017;28;20186;-68
2022/10/06 05:14:05;;;;;;;7.60;6.37;;;;;;;8.29;68.53;96104.50;5032611;28;20217;-68
2022/10/06 05:16:30;;;;;;;15.23;8.10;;;;;;;8.39;68.43;96116.00;5034982;28;20237;-68
2022/10/06 05:18:57;;;;;;;10.50;6.97;;;;;;;8.33;68.14;96101.53;5035641;28;20277;-68
2022/10/06 05:21:28;;;;;;;12.40;7.30;;;;;;;8.37;68.11;96099.53;5030865;28;20183;-67
2022/10/06 05:23:53;;;;;;;12.87;7.03;;;;;;;8.36;67.85;96100.47;5024642;28;20190;-67
2022/10/06 05:26:22;;;;;;;11.68;7.47;;;;;;;8.17;69.09;96104.41;5035805;28;20273;-67
2022/10/06 05:28:47;;;;;;;15.70;7.63;;;;;;;8.24;68.80;96099.59;5035385;28;20202;-67
2022/10/06 05:31:22;;;;;;;17.45;7.93;;;;;;;8.57;68.01;96098.09;5037365;28;20189;-68
2022/10/06 05:33:48;;;;;;;10.43;7.30;;;;;;;8.55;67.66;96100.84;5037364;28;20201;-67
2022/10/06 05:36:19;;;;;;;12.25;6.93;;;;;;;8.59;67.11;96104.91;5028568;28;20191;-66
2022/10/06 05:38:45;;;;;;;13.35;6.50;;;;;;;8.74;66.80;96100.31;5031624;28;20304;-66
2022/10/06 05:41:16;;;;;;;7.07;6.25;;;;;;;8.79;66.46;96092.94;5030139;28;20217;-65
2022/10/06 05:43:42;;;;;;;7.13;6.30;;;;;;;8.92;65.75;96097.25;5028423;28;20241;-66
2022/10/06 05:46:30;;;;;;;12.20;6.37;;;;;;;9.27;64.82;96098.06;5033395;28;20189;-67
2022/10/06 05:48:58;;;;;;;12.87;8.80;;;;;;;9.17;65.43;96098.88;5032145;28;20197;-68
2022/10/06 05:51:27;;;;;;;10.83;6.83;;;;;;;9.09;66.08;96098.59;5035858;28;20201;-68
2022/10/06 05:53:53;;;;;;;13.10;7.17;;;;;;;9.16;65.69;96100.66;5032410;28;20304;-69
2022/10/06 05:56:21;;;;;;;11.10;6.97;;;;;;;9.21;65.55;96103.75;5012124;28;20302;-68
2022/10/06 05:58:49;;;;;;;13.43;7.63;;;;;;;9.29;65.82;96105.81;5008153;28;20400;-68
2022/10/06 06:01:21;;;;;;;16.87;7.10;;;;;;;9.41;65.14;96104.03;5012807;28;20186;-67
2022/10/06 06:04:08;;;;;;;13.90;7.35;;;;;;;9.43;65.21;96107.38;5012957;28;20210;-68
2022/10/06 06:06:36;;;;;;;12.38;8.13;;;;;;;9.42;65.41;96111.78;5010161;28;20183;-66
2022/10/06 06:09:05;;;;;;;11.60;7.20;;;;;;;9.60;64.52;96106.09;5000300;28;20183;-69
2022/10/06 06:11:32;;;;;;;15.77;7.65;;;;;;;9.65;64.56;96102.16;5008461;28;20279;-66
2022/10/06 06:14:00;;;;;;;10.93;6.87;;;;;;;9.66;64.39;96103.81;5010633;28;20207;-69
2022/10/06 06:16:27;;;;;;;16.70;8.40;;;;;;;9.71;64.58;96101.66;5010625;28;20195;-65
2022/10/06 06:18:53;;;;;;;16.20;7.25;;;;;;;9.79;64.38;96108.13;5010802;28;20253;-66
2022/10/06 06:21:19;;;;;;;9.95;7.38;;;;;;;9.74;64.29;96105.00;5000287;28;20251;-68
2022/10/06 06:23:46;;;;;;;14.05;8.48;;;;;;;9.76;63.78;96111.81;5011360;28;20282;-66
2022/10/06 06:26:18;;;;;;;12.43;8.23;;;;;;;9.90;63.59;96110.72;5003556;28;20183;-66
2022/10/06 06:28:47;;;;;;;13.70;8.00;;;;;;;10.07;63.13;96112.03;5010164;28;20244;-68
2022/10/06 06:31:16;;;;;;;14.37;7.40;;;;;;;10.18;62.37;96122.50;5011012;28;20229;-65
2022/10/06 06:33:42;;;;;;;9.70;6.40;;;;;;;9.76;63.39;96113.63;5004589;28;20195;-66
2022/10/06 06:36:25;;;;;;;8.07;6.22;;;;;;;9.89;62.79;96119.56;5001942;28;20266;-67
2022/10/06 06:38:55;;;;;;;10.32;6.72;;;;;;;10.04;62.62;96123.59;5006640;28;20179;-64
2022/10/06 06:41:23;;;;;;;10.07;6.70;;;;;;;10.18;62.36;96119.88;5008097;28;20231;-66
2022/10/06 06:43:50;;;;;;;10.57;6.80;;;;;;;10.28;61.94;96120.03;5010377;28;20199;-66
2022/10/06 06:46:17;;;;;;;8.75;6.43;;;;;;;10.27;61.60;96127.09;5021289;28;20203;-67
2022/10/06 06:48:44;;;;;;;8.65;6.10;;;;;;;10.36;61.20;96118.44;5007078;28;20198;-67
2022/10/06 06:51:10;;;;;;;7.90;5.88;;;;;;;10.40;60.53;96119.06;5010808;28;20207;-68
2022/10/06 06:53:37;;;;;;;9.95;5.60;;;;;;;10.39;60.18;96117.34;5004524;28;20246;-65
2022/10/06 06:56:03;;;;;;;8.07;5.13;;;;;;;10.58;59.42;96114.94;5031412;28;20222;-65
2022/10/06 06:58:29;;;;;;;10.57;5.78;;;;;;;10.43;60.31;96107.44;5033046;28;20190;-67
2022/10/06 07:01:12;;;;;;;7.72;5.65;;;;;;;10.76;59.03;96119.63;5033081;28;20182;-67
2022/10/06 07:03:44;;;;;;;7.68;6.30;;;;;;;10.72;59.01;96119.06;5031938;28;20182;-66
2022/10/06 07:06:12;;;;;;;6.93;5.90;;;;;;;10.79;58.97;96114.94;5023481;28;20187;-67
2022/10/06 07:08:42;;;;;;;9.80;5.80;;;;;;;10.87;59.05;96106.44;5031249;28;20189;-66
2022/10/06 07:11:23;;;;;;;10.77;6.03;;;;;;;10.92;58.88;96103.41;5031289;28;20202;-68
2022/10/06 07:13:54;;;;;;;6.30;5.67;;;;;;;10.92;58.52;96114.78;5024435;28;20209;-66
2022/10/06 07:27:22;;;;;;;7.32;5.82;;;;;;;10.84;59.13;96096.16;5031677;28;20193;-67
2022/10/06 07:29:50;;;;;;;7.60;5.90;;;;;;;11.17;58.08;96091.66;5031327;28;20189;-67
2022/10/06 07:32:15;;;;;;;10.48;7.70;;;;;;;11.35;57.92;96092.75;5030801;28;20193;-66
2022/10/06 07:34:40;;;;;;;7.60;6.82;;;;;;;11.50;57.66;96088.00;5028938;28;20210;-67
2022/10/06 07:37:06;;;;;;;7.28;6.47;;;;;;;11.60;57.17;96078.34;5029197;28;20235;-64
2022/10/06 07:39:31;;;;;;;7.40;6.03;;;;;;;11.73;56.85;96077.25;5026427;28;20293;-66
2022/10/06 07:41:57;;;;;;;8.48;6.13;;;;;;;11.66;57.08;96082.25;5032764;28;20277;-65
2022/10/06 07:44:22;;;;;;;7.43;5.65;;;;;;;11.82;56.27;96081.75;5033161;28;20278;-66
2022/10/06 07:46:48;;;;;;;6.95;5.85;;;;;;;11.77;56.00;96087.41;5033654;28;20202;-66
2022/10/06 07:49:16;;;;;;;7.40;5.75;;;;;;;11.85;56.24;96087.59;5031308;28;20186;-65
2022/10/06 07:51:42;;;;;;;6.78;5.78;;;;;;;11.89;56.19;96085.53;5034677;28;20182;-65
2022/10/06 07:54:08;;;;;;;8.35;5.60;;;;;;;12.12;56.21;96088.81;5023379;28;20226;-66
2022/10/06 07:56:33;;;;;;;7.95;5.68;;;;;;;12.12;57.27;96084.38;5034680;28;20220;-63
2022/10/06 07:58:59;;;;;;;8.80;6.03;;;;;;;11.94;57.28;96082.50;5035647;28;20182;-64
2022/10/06 08:01:26;;;;;;;9.35;5.90;;;;;;;11.95;57.53;96084.16;5030866;28;20201;-65
2022/10/06 08:03:51;;;;;;;7.28;6.35;;;;;;;12.12;57.36;96079.09;5032952;28;20189;-65
2022/10/06 08:06:18;;;;;;;8.25;5.75;;;;;;;12.17;57.32;96085.78;5035897;28;20217;-64
2022/10/06 08:08:46;;;;;;;7.57;5.93;;;;;;;12.27;56.45;96089.25;5006444;28;20194;-65
2022/10/06 08:11:12;;;;;;;7.03;5.63;;;;;;;12.34;55.40;96087.72;5031951;28;20197;-65
2022/10/06 08:13:41;;;;;;;8.18;5.97;;;;;;;12.22;55.54;96089.66;5025012;28;20241;-65
2022/10/06 08:16:15;;;;;;;6.57;5.65;;;;;;;12.43;54.83;96084.28;5029009;28;20205;-64
2022/10/06 08:18:41;;;;;;;6.25;5.63;;;;;;;12.64;54.67;96092.06;5027368;28;20180;-66
2022/10/06 08:21:19;;;;;;;7.65;5.55;;;;;;;12.54;55.04;96080.69;5028841;28;20253;-66
2022/10/06 08:23:46;;;;;;;8.77;5.95;;;;;;;12.69;55.20;96079.28;5034999;28;20605;-66
2022/10/06 08:26:13;;;;;;;9.32;6.75;;;;;;;12.79;55.61;96087.22;5030524;28;20269;-67
2022/10/06 08:28:46;;;;;;;8.25;5.75;;;;;;;12.85;55.25;96083.19;5029028;28;20213;-66
2022/10/06 08:31:14;;;;;;;9.95;6.32;;;;;;;12.85;54.87;96084.00;5013070;28;20193;-65
2022/10/06 08:33:41;;;;;;;9.50;6.90;;;;;;;12.98;54.47;96081.94;5033918;28;20198;-67
2022/10/06 08:36:18;;;;;;;8.23;5.85;;;;;;;13.13;54.45;96078.88;5032323;28;20186;-67
2022/10/06 08:38:48;;;;;;;11.63;6.82;;;;;;;13.06;54.89;96073.31;5028450;28;20236;-66
2022/10/06 08:41:43;;;;;;;8.05;6.65;;;;;;;13.22;53.84;96083.28;5027647;28;20236;-67
2022/10/06 08:44:16;;;;;;;8.93;6.47;;;;;;;13.22;53.03;96076.19;5032084;28;20197;-67
2022/10/06 08:46:54;;;;;;;11.45;6.57;;;;;;;13.36;52.80;96072.28;5029575;28;20294;-67
2022/10/06 08:49:22;;;;;;;11.02;7.03;;;;;;;13.42;52.35;96069.09;5035466;28;20200;-66
2022/10/06 08:52:06;;;;;;;7.82;6.55;;;;;;;13.55;52.65;96063.50;5035601;28;20190;-66
2022/10/06 08:54:44;;;;;;;9.43;6.78;;;;;;;13.69;52.42;96067.47;5034856;28;20235;-65
2022/10/06 08:57:23;;;;;;;6.53;5.93;;;;;;;13.80;51.17;96069.09;5033639;28;20273;-65
2022/10/06 08:59:52;;;;;;;8.88;6.10;;;;;;;13.82;50.89;96067.13;5039281;28;20212;-65
2022/10/06 09:02:31;;;;;;;7.97;5.70;;;;;;;14.01;50.81;96067.06;5030647;28;20186;-65
2022/10/06 09:05:00;;;;;;;9.80;6.28;;;;;;;14.20;50.27;96073.22;5034300;28;20184;-66
2022/10/06 09:08:04;;;;;;;10.05;6.40;;;;;;;14.36;49.46;96072.56;5036712;28;20206;-66
2022/10/06 09:10:38;;;;;;;9.45;6.13;;;;;;;14.52;49.83;96062.16;5001130;28;20271;-66
2022/10/06 09:13:11;;;;;;;12.00;6.45;;;;;;;14.64;49.58;96068.06;5009606;28;20302;-66
2022/10/06 09:15:49;;;;;;;7.55;6.20;;;;;;;14.67;49.05;96059.81;5008688;28;20197;-66
2022/10/06 09:18:34;;;;;;;6.55;5.85;;;;;;;14.80;48.80;96060.28;5012957;28;20205;-66
2022/10/06 09:21:11;;;;;;;7.85;6.20;;;;;;;14.99;48.45;96061.91;4991535;28;20199;-64
2022/10/06 09:23:49;;;;;;;9.70;6.30;;;;;;;15.00;48.70;96058.31;4995140;28;20210;-63
2022/10/06 09:26:17;;;;;;;13.20;6.43;;;;;;;14.85;48.57;96060.66;4995237;28;20183;-64
2022/10/06 09:28:45;;;;;;;8.98;6.25;;;;;;;14.49;48.70;96058.00;5011392;28;20285;-65
2022/10/06 09:31:28;;;;;;;8.73;6.35;;;;;;;14.58;49.28;96055.44;5012032;28;20250;-66
2022/10/06 09:34:03;;;;;;;8.38;5.90;;;;;;;14.82;48.31;96050.38;5013156;28;20222;-67
2022/10/06 09:36:29;;;;;;;7.38;6.07;;;;;;;15.08;48.07;96052.25;5012445;28;20190;-65
2022/10/06 09:38:56;;;;;;;7.80;6.28;;;;;;;15.17;47.50;96048.66;5010729;28;20264;-68
2022/10/06 09:41:30;;;;;;;16.02;10.25;;;;;;;15.48;47.32;96037.59;4991228;28;20224;-67
2022/10/06 09:44:02;;;;;;;7.60;6.63;;;;;;;15.64;46.71;96029.72;5010723;28;20309;-67
2022/10/06 09:46:33;;;;;;;10.48;5.68;;;;;;;15.74;46.81;96029.63;5021626;28;20225;-65
2022/10/06 09:49:06;;;;;;;7.57;5.65;;;;;;;16.04;45.89;96030.94;5034225;28;20269;-65
2022/10/06 09:51:35;;;;;;;10.65;5.95;;;;;;;16.30;45.37;96029.03;5034148;28;20187;-64
2022/10/06 09:54:09;;;;;;;7.28;6.00;;;;;;;16.48;45.10;96028.88;5039021;28;20216;-64
2022/10/06 09:56:40;;;;;;;8.82;5.93;;;;;;;16.56;44.82;96022.75;5022930;28;21474;-64
2022/10/06 09:59:19;;;;;;;8.18;5.25;;;;;;;16.64;44.55;96020.09;5029967;28;20201;-64
2022/10/06 10:01:50;;;;;;;7.38;5.75;;;;;;;16.71;44.37;96023.75;5024716;28;20198;-63
2022/10/06 10:04:23;;;;;;;6.95;5.03;;;;;;;16.78;44.51;96020.47;5036005;28;20188;-64
2022/10/06 10:06:48;;;;;;;10.18;5.47;;;;;;;17.04;44.12;96015.00;5025052;28;20189;-63
2022/10/06 10:09:23;;;;;;;8.50;5.60;;;;;;;17.08;42.95;96010.97;5034687;28;20471;-63
2022/10/06 10:12:26;;;;;;;9.20;6.00;;;;;;;17.14;42.63;96011.16;5019388;28;20201;-63
2022/10/06 10:14:58;;;;;;;7.18;5.60;;;;;;;17.35;43.13;96018.59;5032396;28;20663;-63
2022/10/06 10:17:50;;;;;;;6.97;5.07;;;;;;;17.50;42.36;96009.91;5029151;28;20190;-63
2022/10/06 10:20:28;;;;;;;7.38;4.95;;;;;;;17.52;41.67;96002.59;5030576;28;20187;-64
2022/10/06 10:22:57;;;;;;;6.45;4.70;;;;;;;17.69;41.82;96008.69;5033808;28;20216;-63
2022/10/06 10:25:31;;;;;;;9.93;4.88;;;;;;;17.85;40.95;96006.00;5022977;28;20241;-64
2022/10/06 10:28:16;;;;;;;7.07;4.90;;;;;;;17.90;40.43;96005.50;5034228;28;20189;-63
2022/10/06 10:30:53;;;;;;;8.88;5.07;;;;;;;18.10;39.76;95997.94;5031767;28;20193;-63
2022/10/06 10:33:58;;;;;;;7.18;4.35;;;;;;;18.10;39.17;96000.59;5031288;28;20210;-63
2022/10/06 10:36:31;;;;;;;12.65;5.13;;;;;;;18.05;39.93;95993.94;5011141;28;20194;-64
2022/10/06 10:38:58;;;;;;;9.98;4.88;;;;;;;18.09;40.00;95981.09;5012180;28;20199;-63
2022/10/06 10:41:28;;;;;;;9.15;4.93;;;;;;;18.24;40.36;95989.19;5014382;28;20231;-63
2022/10/06 10:44:06;;;;;;;8.32;4.63;;;;;;;18.39;39.88;95984.78;5011533;28;20182;-63
2022/10/06 10:46:51;;;;;;;6.65;4.85;;;;;;;18.49;39.34;95987.19;5015049;28;20215;-63
2022/10/06 10:49:25;;;;;;;6.07;4.63;;;;;;;18.62;38.88;95976.78;5009255;28;20310;-63
2022/10/06 10:51:57;;;;;;;6.78;4.53;;;;;;;18.90;37.10;95966.44;5014154;28;20217;-64
2022/10/06 10:54:47;;;;;;;7.68;4.47;;;;;;;18.97;35.66;95974.50;5017367;28;20218;-63
2022/10/06 10:57:16;;;;;;;7.50;4.95;;;;;;;19.13;34.32;95969.03;4994482;28;20198;-64
2022/10/06 10:59:51;;;;;;;5.90;3.97;;;;;;;19.05;34.13;95961.09;4987773;28;20305;-64
2022/10/06 11:02:21;;;;;;;7.88;4.03;;;;;;;19.13;33.66;95969.03;5004600;28;20182;-66
2022/10/06 11:04:51;;;;;;;4.15;3.65;;;;;;;19.67;33.41;95965.31;4990049;28;20566;-66
2022/10/06 11:10:23;;;;;;;4.40;3.97;;;;;;;19.85;31.39;95961.44;5008499;28;20189;-68
2022/10/06 11:12:57;;;;;;;4.65;3.40;;;;;;;19.89;29.83;95949.34;5005660;28;20220;-66
2022/10/06 11:15:32;;;;;;;4.88;3.65;;;;;;;20.20;29.84;95952.59;4991407;28;20191;-66
2022/10/06 11:18:12;;;;;;;7.57;3.45;;;;;;;19.64;29.97;95940.81;4993022;28;20193;-64
2022/10/06 11:20:50;;;;;;;6.63;3.10;;;;;;;19.91;29.76;95936.66;4989065;28;20242;-64
2022/10/06 11:23:20;;;;;;;5.40;3.40;;;;;;;20.46;28.40;95940.56;4982288;28;20194;-66
2022/10/06 11:26:08;;;;;;;4.80;2.78;;;;;;;20.53;26.82;95930.75;4995138;28;20196;-64
2022/10/06 11:28:44;;;;;;;5.65;3.08;;;;;;;20.93;26.78;95933.81;4992432;28;20188;-65
2022/10/06 11:31:59;;;;;;;5.00;2.67;;;;;;;21.24;23.79;95927.22;4986255;28;20215;-65
2022/10/06 11:34:25;;;;;;;3.60;2.10;;;;;;;21.24;23.49;95919.19;5005628;28;20226;-65
2022/10/06 11:37:21;;;;;;;2.00;1.80;;;;;;;20.84;22.40;95921.59;4983632;28;20223;-65
2022/10/06 11:39:57;;;;;;;3.78;2.10;;;;;;;21.59;23.21;95912.84;5008655;28;20249;-65
2022/10/06 11:42:41;;;;;;;2.70;2.35;;;;;;;22.15;23.91;95927.88;4993524;28;20253;-65
2022/10/06 11:45:15;;;;;;;3.08;1.83;;;;;;;22.37;22.56;95917.88;5003329;28;20233;-66
2022/10/06 11:48:18;;;;;;;3.90;2.33;;;;;;;22.29;23.39;95915.38;4987895;28;20184;-65
2022/10/06 11:50:47;;;;;;;4.88;2.50;;;;;;;22.56;23.23;95899.34;4994102;28;20190;-66
2022/10/06 11:53:25;;;;;;;3.17;2.38;;;;;;;22.80;24.01;95908.63;4990092;28;20310;-66
2022/10/06 11:56:15;;;;;;;3.50;2.03;;;;;;;22.98;22.87;95894.63;5016530;28;20229;-65
2022/10/06 11:58:50;;;;;;;3.53;2.15;;;;;;;23.00;22.56;95895.25;5028793;28;20185;-66
2022/10/06 12:01:31;;;;;;;4.30;2.00;;;;;;;23.41;23.81;95888.78;5027856;28;20197;-65
2022/10/06 12:04:08;;;;;;;3.70;2.22;;;;;;;23.86;23.52;95894.22;5027613;28;20185;-66